Estación Meteorológica de la Universidad de Murcia
Estación Meteorológica de la Universidad de Murcia
Universidad de Murcia
 

Tanque evaporímetroTanque evaporímetro

 

Máxima: 0,5 mm a las 11:01:00 del día 12/11/2018

||Evaporación máxima últimos meses|| ---- ||Evaporación mínima últimos meses||


Evaporación máxima

  • 1 - 0,5 mm del día 12/11/2018
  • 2 - 0,6 mm del día 11/11/2018
  • 3 - 0,6 mm del día 10/11/2018
  • 4 - 1 mm del día 09/11/2018
  • 5 - 0,6 mm del día 08/11/2018
  • 6 - 0,7 mm del día 07/11/2018
  • 7 - 0,8 mm del día 06/11/2018
  • 8 - 0,2 mm del día 05/11/2018
  • 9 - 0,4 mm del día 04/11/2018
  • 10 - 0,5 mm del día 03/11/2018
  • 11 - 0,6 mm del día 02/11/2018
  • 12 - 0,8 mm del día 01/11/2018
  • 13 - 0,7 mm del día 31/10/2018
  • 14 - 0,4 mm del día 30/10/2018
  • 15 - 1,3 mm del día 29/10/2018
  • 16 - 0,7 mm del día 28/10/2018
  • 17 - 0,9 mm del día 27/10/2018
  • 18 - 0,6 mm del día 26/10/2018
  • 19 - 1 mm del día 25/10/2018
  • 20 - 1 mm del día 24/10/2018
  • 21 - 0,8 mm del día 23/10/2018
  • 22 - 0,5 mm del día 22/10/2018
  • 23 - 0,3 mm del día 21/10/2018
  • 24 - 0,5 mm del día 20/10/2018
  • 25 - 0,6 mm del día 19/10/2018
  • 26 - 0,7 mm del día 18/10/2018
  • 27 - 0,9 mm del día 17/10/2018
  • 28 - 0,5 mm del día 16/10/2018
  • 29 - 0,8 mm del día 15/10/2018
  • 30 - 0,7 mm del día 14/10/2018
  • 31 - 0,9 mm del día 13/10/2018
  • 32 - 0,9 mm del día 12/10/2018
  • 33 - 0,9 mm del día 11/10/2018
  • 34 - 0,7 mm del día 10/10/2018
  • 35 - 0,7 mm del día 09/10/2018
  • 36 - 0,6 mm del día 08/10/2018
  • 37 - 0,6 mm del día 07/10/2018
  • 38 - 1,2 mm del día 06/10/2018
  • 39 - 0,8 mm del día 05/10/2018
  • 40 - 0,8 mm del día 04/10/2018
  • 41 - 1 mm del día 03/10/2018
  • 42 - 0,7 mm del día 02/10/2018
  • 43 - 2,3 mm del día 01/10/2018
  • 44 - 0,7 mm del día 30/09/2018
  • 45 - 0,8 mm del día 29/09/2018
  • 46 - 0,8 mm del día 28/09/2018
  • 47 - 1 mm del día 27/09/2018
  • 48 - 0,9 mm del día 26/09/2018
  • 49 - 0,7 mm del día 25/09/2018
  • 50 - 0,9 mm del día 21/09/2018
  • 51 - 0,9 mm del día 20/09/2018
  • 52 - 1,3 mm del día 19/09/2018
  • 53 - 1,7 mm del día 18/09/2018
  • 54 - 0,9 mm del día 17/09/2018
  • 55 - 1,1 mm del día 16/09/2018
  • 56 - 1,1 mm del día 15/09/2018
  • 57 - 1,4 mm del día 14/09/2018

||Volver al inicio de la página||


 

|| Temperatura Ambiente|| Humedad relativa|| Velocidad y dirección del viento|| Precipitación|| Radiación Solar Global y PAR|| Temperatura y humedad del suelo|| Más información|| Volver a la página principal|| Volver al inicio de la página||


Estación Meteorológica de la Universidad de Murcia
http://estacion.um.es/
Informacion actualizada a: 13/11/2018 a las 01:06:00